Sunday, May 27, 2018, 9:58 AM GMT
Back to Local

CWAF, Ile Rouge Meteorological Aeronautical Presentation System

Location: , , Canada Lat: 48.083
Local Time: 9:58 AM GMT ( 9:58 GMT) Lon: -69.55
Time Zone: GMT Elev: 16 ft

Show me the last for .
Show Coded

Time T Td Feel RH Dir Speed Gust Alt SLP Vis Weather Sky Remarks
2018-05-27 09:00 40 37 38 89 300° 3 - - - 0 None
2018-05-27 08:00 40 36 35 88 350° 6 - - - 0 None
2018-05-27 07:00 42 35 37 76 30° 7 - - - 0 None
2018-05-27 06:00 41 36 - 82 350° 2 - - - 0 None
2018-05-27 05:00 44 36 40 73 70° 6 - - - 0 None
2018-05-27 04:00 44 35 41 68 340° 6 - - - 0 None
2018-05-27 03:00 46 35 41 66 20° 9 - - - 0 None
2018-05-27 02:00 46 36 40 67 20° 12 - - - 0 None
2018-05-27 01:00 46 36 41 67 20° 10 - - - 0 None
2018-05-27 00:00 44 35 37 70 30° 13 - - - 0 None
2018-05-26 23:00 49 34 44 56 40° 13 - - - 0 None
2018-05-26 22:00 51 35 - 54 70° 14 - - - 0 None
2018-05-26 21:00 50 36 - 58 70° 14 - - - 0 None
2018-05-26 20:00 51 38 - 61 60° 12 - - - 0 None
2018-05-26 19:00 51 40 - 65 20° 5 - - - 0 None
2018-05-26 18:00 47 38 44 71 360° 6 - - - 0 None
2018-05-26 17:00 48 40 45 75 20° 6 - - - 0 None
2018-05-26 16:00 44 42 41 94 50° 5 - - - 0 None
2018-05-26 15:00 40 38 36 91 340° 6 - - - 0 None
2018-05-26 14:00 40 38 - 93 330° 2 - - - 0 None
2018-05-26 13:00 40 39 - 95 90° 2 - - - 0 None
2018-05-26 12:00 39 38 36 96 70° 3 - - - 0 None
2018-05-26 11:00 39 38 35 97 360° 5 - - - 0 None
2018-05-26 10:00 39 38 34 97 20° 6 - - - 0 None

Support USWX by starting your Amazon purchase here.